^^
Station Historical Data
Daily Summary for April 25, 2017 Units:  English    Metric   Both
« Previous Day
Next Day »
Daily Weekly Monthly Yearly Custom
  High: Low: Average:
Temperature: 55.5 °F 49.0 °F 52.4 °F
Dew Point: 53.8 °F 42.3 °F 50.2 °F
Humidity: 96% 73% 92%
Wind Speed: 5.0mph 0.0mph 1.2mph
Wind Gust: 15.0mph - -
Wind- - SSE
Pressure: 30.15 in 29.90 in -
Precipitation: 0.78 in    
Historical Graphs
 
 
Tabular Data for April 25, 2017
Time Temperature Dew Point Pressure Wind Wind Speed Wind Gust Humidity Rainfall Rate (Hourly) Conditions
00:00 50.6 °F 42.3 °F 30.15 in Calm   4.0 mph 73% 0.00 in BKN
00:15 50.5 °F 42.9 °F 30.15 in Calm   3.0 mph 75% 0.00 in BKN
00:30 50.4 °F 43.1 °F 30.15 in Calm   4.0 mph 76% 0.00 in BKN
00:45 50.3 °F 43.4 °F 30.15 in ENE 1.0 mph 5.0 mph 77% 0.00 in BKN
01:00 50.3 °F 43.7 °F 30.14 in Calm   4.0 mph 78% 0.00 in BKN
02:15 49.3 °F 45.9 °F 30.12 in Calm   6.0 mph 88% 0.01 in -DZ
02:45 49.3 °F 46.8 °F 30.11 in Calm   3.0 mph 91% 0.00 in -DZ
03:00 49.3 °F 46.8 °F 30.11 in Calm   3.0 mph 91% 0.00 in -DZ
03:15 49.4 °F 46.9 °F 30.11 in NNE 1.0 mph 7.0 mph 91% 0.00 in OVC
03:30 49.6 °F 47.1 °F 30.11 in Calm   5.0 mph 91% 0.00 in OVC
03:45 49.6 °F 47.1 °F 30.11 in Calm   3.0 mph 91% 0.00 in OVC
04:00 49.6 °F 47.1 °F 30.11 in Calm   3.0 mph 91% 0.00 in OVC
04:15 49.6 °F 47.1 °F 30.11 in Calm   4.0 mph 91% 0.00 in BKN
04:30 49.6 °F 47.1 °F 30.11 in Calm   6.0 mph 91% 0.00 in BKN
04:45 49.5 °F 47.3 °F 30.11 in Calm   3.0 mph 92% 0.00 in BKN
05:00 49.5 °F 47.3 °F 30.11 in NNW 1.0 mph 4.0 mph 92% 0.01 in RA
05:15 49.4 °F 47.2 °F 30.10 in Calm   8.0 mph 92% 0.00 in -RA
05:30 49.2 °F 47.0 °F 30.10 in WSW 1.0 mph 9.0 mph 92% 0.01 in -RA
05:45 49.2 °F 46.7 °F 30.10 in North 1.0 mph 6.0 mph 91% 0.01 in -RA
06:00 49.2 °F 46.7 °F 30.11 in NNE 1.0 mph 6.0 mph 91% 0.00 in -RA
06:15 49.1 °F 46.6 °F 30.11 in North 1.0 mph 7.0 mph 91% 0.01 in -RA
06:30 49.0 °F 46.8 °F 30.11 in Calm   6.0 mph 92% 0.00 in -RA
06:45 49.4 °F 47.4 °F 30.11 in NNE 1.0 mph 5.0 mph 93% 0.00 in -RA
07:00 49.8 °F 47.8 °F 30.11 in NNE 2.0 mph 6.0 mph 93% 0.00 in -RA
07:15 50.3 °F 48.4 °F 30.12 in SSW 1.0 mph 8.0 mph 93% 0.00 in OVC
07:30 50.8 °F 48.6 °F 30.12 in Calm   7.0 mph 92% 0.00 in OVC
07:45 51.3 °F 48.8 °F 30.11 in North 2.0 mph 8.0 mph 91% 0.00 in OVC
08:00 51.4 °F 48.6 °F 30.12 in East 2.0 mph 8.0 mph 90% 0.00 in OVC
08:15 51.4 °F 48.6 °F 30.12 in NE 2.0 mph 10.0 mph 90% 0.00 in OVC
08:30 51.5 °F 48.7 °F 30.12 in North 1.0 mph 12.0 mph 90% 0.00 in OVC
08:45 51.3 °F 48.8 °F 30.12 in NE 1.0 mph 8.0 mph 91% 0.00 in OVC
09:00 51.3 °F 49.1 °F 30.11 in NNE 3.0 mph 9.0 mph 92% 0.00 in OVC
09:15 51.6 °F 49.1 °F 30.12 in South 1.0 mph 6.0 mph 91% 0.00 in OVC
09:30 52.1 °F 49.3 °F 30.12 in NE 5.0 mph 12.0 mph 90% 0.00 in OVC
09:45 52.6 °F 49.8 °F 30.12 in North 1.0 mph 12.0 mph 90% 0.00 in OVC
10:00 53.3 °F 50.2 °F 30.11 in NNW 2.0 mph 7.0 mph 89% 0.00 in OVC
10:15 53.9 °F 50.4 °F 30.11 in SE 2.0 mph 12.0 mph 88% 0.00 in -DZ
10:30 53.9 °F 50.1 °F 30.12 in West 1.0 mph 8.0 mph 87% 0.00 in -DZ
10:45 53.6 °F 51.0 °F 30.10 in NW 1.0 mph 12.0 mph 91% 0.05 in -DZ
11:00 53.4 °F 51.1 °F 30.11 in NE 1.0 mph 8.0 mph 92% 0.01 in -DZ
11:15 53.2 °F 51.0 °F 30.11 in ENE 1.0 mph 9.0 mph 92% 0.01 in -RA
11:30 53.1 °F 51.1 °F 30.11 in ESE 3.0 mph 10.0 mph 93% 0.02 in -RA
11:45 53.1 °F 51.2 °F 30.09 in Calm   7.0 mph 93% 0.04 in -RA
12:00 53.7 °F 52.0 °F 30.09 in Calm   9.0 mph 94% 0.00 in -RA
12:15 54.8 °F 52.8 °F 30.09 in North 1.0 mph 7.0 mph 93% 0.00 in -RA
12:30 54.9 °F 52.6 °F 30.08 in NNE 3.0 mph 13.0 mph 92% 0.01 in -RA
12:45 55.5 °F 52.6 °F 30.07 in NW 1.0 mph 11.0 mph 90% 0.00 in -RA
13:00 55.1 °F 52.5 °F 30.08 in ESE 3.0 mph 8.0 mph 91% 0.00 in -RA
13:15 55.0 °F 52.4 °F 30.08 in ESE 2.0 mph 12.0 mph 91% 0.00 in OVC
13:30 54.7 °F 52.4 °F 30.07 in NE 1.0 mph 8.0 mph 92% 0.02 in OVC
13:45 55.1 °F 53.1 °F 30.06 in NE 1.0 mph 5.0 mph 93% 0.01 in OVC
14:00 55.2 °F 53.2 °F 30.05 in NW 1.0 mph 8.0 mph 93% 0.00 in OVC
14:15 55.5 °F 53.8 °F 30.04 in NNE 2.0 mph 6.0 mph 94% 0.00 in -RA
14:30 55.4 °F 53.4 °F 30.04 in NNW 1.0 mph 7.0 mph 93% 0.00 in -RA
14:45 55.4 °F 53.7 °F 30.03 in NW 1.0 mph 6.0 mph 94% 0.03 in -RA
15:00 55.4 °F 53.7 °F 30.03 in NNE 1.0 mph 5.0 mph 94% 0.00 in -RA
15:15 55.2 °F 53.5 °F 30.02 in ENE 2.0 mph 10.0 mph 94% 0.01 in -RA
15:30 55.3 °F 53.6 °F 30.02 in East 2.0 mph 12.0 mph 94% 0.00 in -RA
15:45 55.2 °F 53.5 °F 30.01 in North 1.0 mph 10.0 mph 94% 0.00 in -RA
16:00 55.1 °F 53.4 °F 30.00 in WSW 1.0 mph 7.0 mph 94% 0.01 in -RA
16:15 54.9 °F 53.2 °F 29.99 in SE 5.0 mph 12.0 mph 94% 0.01 in -RA
16:30 54.8 °F 53.1 °F 29.99 in ESE 1.0 mph 8.0 mph 94% 0.00 in -RA
16:45 54.7 °F 53.0 °F 29.98 in NE 5.0 mph 12.0 mph 94% 0.01 in -RA
17:00 54.5 °F 53.1 °F 29.98 in East 1.0 mph 10.0 mph 95% 0.01 in -RA
17:15 54.3 °F 52.9 °F 29.99 in Calm   6.0 mph 95% 0.03 in RA
17:30 54.2 °F 52.8 °F 29.98 in NNE 2.0 mph 9.0 mph 95% 0.02 in RA
18:00 54.1 °F 52.7 °F 29.96 in NW 1.0 mph 4.0 mph 95% 0.02 in OVC
18:15 53.9 °F 52.5 °F 29.96 in West 1.0 mph 9.0 mph 95% 0.02 in -RA
18:30 53.7 °F 52.3 °F 29.95 in North 1.0 mph 10.0 mph 95% 0.03 in -RA
18:45 53.5 °F 52.1 °F 29.95 in NNW 1.0 mph 6.0 mph 95% 0.02 in -RA
19:00 53.2 °F 51.8 °F 29.95 in WNW 1.0 mph 6.0 mph 95% 0.02 in -RA
19:15 53.0 °F 51.6 °F 29.94 in SSE 2.0 mph 13.0 mph 95% 0.02 in -RA
19:30 52.7 °F 51.3 °F 29.93 in NW 1.0 mph 9.0 mph 95% 0.04 in -RA
19:45 52.5 °F 51.1 °F 29.93 in NNW 2.0 mph 10.0 mph 95% 0.01 in -RA
20:00 52.3 °F 50.9 °F 29.93 in SE 2.0 mph 9.0 mph 95% 0.02 in -RA
20:15 52.2 °F 50.8 °F 29.93 in WNW 1.0 mph 8.0 mph 95% 0.02 in -RA
20:30 52.2 °F 51.1 °F 29.93 in ENE 2.0 mph 8.0 mph 96% 0.03 in -RA
20:45 52.2 °F 51.1 °F 29.93 in East 1.0 mph 7.0 mph 96% 0.04 in -RA
21:00 52.2 °F 51.1 °F 29.92 in North 3.0 mph 15.0 mph 96% 0.01 in -RA
21:15 52.4 °F 51.3 °F 29.92 in NE 2.0 mph 10.0 mph 96% 0.01 in -RA
21:30 52.6 °F 51.5 °F 29.92 in ENE 1.0 mph 9.0 mph 96% 0.01 in -RA
21:45 52.7 °F 51.6 °F 29.92 in East 2.0 mph 10.0 mph 96% 0.01 in -RA
22:00 52.9 °F 51.8 °F 29.92 in NNW 1.0 mph 8.0 mph 96% 0.02 in -RA
22:15 53.0 °F 51.9 °F 29.91 in NW 1.0 mph 8.0 mph 96% 0.00 in -RA
22:30 53.1 °F 52.0 °F 29.91 in NW 1.0 mph 6.0 mph 96% 0.02 in -RA
22:45 53.2 °F 52.1 °F 29.91 in Calm   4.0 mph 96% 0.01 in -RA
23:00 53.2 °F 52.1 °F 29.90 in Calm   4.0 mph 96% 0.00 in -RA
23:15 53.4 °F 52.3 °F 29.91 in NW 2.0 mph 12.0 mph 96% 0.00 in -RA
23:30 53.7 °F 52.6 °F 29.91 in East 1.0 mph 9.0 mph 96% 0.00 in -RA
23:45 53.7 °F 52.6 °F 29.90 in Calm   5.0 mph 96% 0.01 in -RA
TarryTown NY Weather
Compliments of Weather Underground - 1.5 mb